createdAt,value
2023-05-24T00:00:00.630Z,8.57
2023-05-24T00:02:28.345Z,7.18
2023-05-24T00:04:55.674Z,8.95
2023-05-24T00:07:22.837Z,9.82
2023-05-24T00:09:49.932Z,8.52
2023-05-24T00:12:17.042Z,7.65
2023-05-24T00:14:44.139Z,7.70
2023-05-24T00:17:12.948Z,8.57
2023-05-24T00:19:40.340Z,8.80
2023-05-24T00:22:07.518Z,8.20
2023-05-24T00:24:34.710Z,5.78
2023-05-24T00:27:01.935Z,6.90
2023-05-24T00:29:31.476Z,9.82
2023-05-24T00:32:00.830Z,8.93
2023-05-24T00:34:28.143Z,8.93
2023-05-24T00:36:55.176Z,7.50
2023-05-24T00:39:22.253Z,8.38
2023-05-24T00:41:49.557Z,7.15
2023-05-24T00:44:16.626Z,7.72
2023-05-24T00:46:44.353Z,6.57
2023-05-24T00:49:11.730Z,7.63
2023-05-24T00:51:38.962Z,9.45
2023-05-24T00:54:07.034Z,7.32
2023-05-24T00:56:34.428Z,6.22
2023-05-24T00:59:03.618Z,9.13
2023-05-24T01:01:34.911Z,6.55
2023-05-24T01:04:02.777Z,8.00
2023-05-24T01:06:36.802Z,7.65
2023-05-24T01:09:35.214Z,8.35
2023-05-24T01:12:15.769Z,9.35
2023-05-24T01:15:01.776Z,6.82
2023-05-24T01:17:42.957Z,8.27
2023-05-24T01:20:13.675Z,7.22
2023-05-24T01:22:59.414Z,6.80
2023-05-24T01:25:59.652Z,9.15
2023-05-24T01:28:28.385Z,8.20
2023-05-24T01:30:56.270Z,6.50
2023-05-24T01:33:25.858Z,8.95
2023-05-24T01:35:53.018Z,10.60
2023-05-24T01:38:20.074Z,8.13
2023-05-24T01:40:50.774Z,10.98
2023-05-24T01:43:35.213Z,7.25
2023-05-24T01:46:07.016Z,9.55
2023-05-24T01:49:02.365Z,11.25
2023-05-24T01:51:39.013Z,10.88
2023-05-24T01:56:35.972Z,8.43
2023-05-24T01:59:03.751Z,10.40
2023-05-24T02:01:32.032Z,9.45
2023-05-24T02:03:59.729Z,6.93
2023-05-24T02:06:26.918Z,8.43
2023-05-24T02:08:53.976Z,10.30
2023-05-24T02:11:23.104Z,8.57
2023-05-24T02:13:50.225Z,8.55
2023-05-24T02:16:18.346Z,9.15
2023-05-24T02:18:46.946Z,11.55
2023-05-24T02:21:14.202Z,9.82
2023-05-24T02:23:41.293Z,12.70
2023-05-24T02:26:11.639Z,10.48
2023-05-24T02:28:38.830Z,8.52
2023-05-24T02:31:06.449Z,8.32
2023-05-24T02:33:35.419Z,10.68
2023-05-24T02:36:02.625Z,10.85
2023-05-24T02:38:29.710Z,7.93
2023-05-24T02:40:56.730Z,11.18
2023-05-24T02:43:23.954Z,10.43
2023-05-24T02:45:51.077Z,10.25
2023-05-24T02:48:18.242Z,8.15
2023-05-24T02:50:45.490Z,8.15
2023-05-24T02:53:12.794Z,8.80
2023-05-24T02:55:40.098Z,8.52
2023-05-24T02:58:08.473Z,8.27
2023-05-24T03:00:36.249Z,13.10
2023-05-24T03:03:03.538Z,7.45
2023-05-24T03:05:30.840Z,9.32
2023-05-24T03:07:58.593Z,9.65
2023-05-24T03:10:25.882Z,8.00
2023-05-24T03:12:52.921Z,10.23
2023-05-24T03:15:20.220Z,9.18
2023-05-24T03:17:47.679Z,7.30
2023-05-24T03:20:16.062Z,7.38
2023-05-24T03:22:43.563Z,11.27
2023-05-24T03:25:10.691Z,9.40
2023-05-24T03:27:38.667Z,9.38
2023-05-24T03:30:06.870Z,8.70
2023-05-24T03:32:41.154Z,11.27
2023-05-24T03:35:12.176Z,10.63
2023-05-24T03:37:39.532Z,9.50
2023-05-24T03:40:08.996Z,8.63
2023-05-24T03:43:05.672Z,9.65
2023-05-24T03:45:53.679Z,9.63
2023-05-24T03:48:21.159Z,9.23
2023-05-24T03:50:50.292Z,9.98
2023-05-24T03:53:19.221Z,11.15
2023-05-24T03:55:47.673Z,10.50
2023-05-24T03:58:14.700Z,9.45
2023-05-24T04:00:41.964Z,9.73
2023-05-24T04:03:09.492Z,9.85
2023-05-24T04:05:36.562Z,7.43
2023-05-24T04:08:05.095Z,12.52
2023-05-24T04:10:32.274Z,8.05
2023-05-24T04:13:00.863Z,9.98
2023-05-24T04:15:27.995Z,13.25
2023-05-24T04:17:55.771Z,8.63
2023-05-24T04:20:27.803Z,8.65
2023-05-24T04:22:56.365Z,9.77
2023-05-24T04:25:23.834Z,9.52
2023-05-24T04:27:51.040Z,9.90
2023-05-24T04:30:18.439Z,8.60
2023-05-24T04:32:45.679Z,10.70
2023-05-24T04:35:13.559Z,8.15
2023-05-24T04:37:41.066Z,7.25
2023-05-24T04:40:08.850Z,9.05
2023-05-24T04:42:36.138Z,8.63
2023-05-24T04:45:03.562Z,9.40
2023-05-24T04:47:33.930Z,8.32
2023-05-24T04:50:01.107Z,10.70
2023-05-24T04:52:28.315Z,8.95
2023-05-24T04:54:55.757Z,7.25
2023-05-24T04:57:22.987Z,8.57
2023-05-24T04:59:50.172Z,7.07
2023-05-24T05:02:17.661Z,9.25
2023-05-24T05:04:44.840Z,7.90
2023-05-24T05:07:11.898Z,8.75
2023-05-24T05:09:39.044Z,8.93
2023-05-24T05:12:07.314Z,8.80
2023-05-24T05:14:34.518Z,7.70
2023-05-24T05:17:01.739Z,8.25
2023-05-24T05:19:28.965Z,8.20
2023-05-24T05:21:56.119Z,8.20
2023-05-24T05:24:23.353Z,7.15
2023-05-24T05:26:50.915Z,11.45
2023-05-24T05:29:17.990Z,7.50
2023-05-24T05:31:45.242Z,8.23
2023-05-24T05:34:12.402Z,9.93
2023-05-24T05:36:41.045Z,12.80
2023-05-24T05:39:11.992Z,8.35
2023-05-24T05:41:39.880Z,8.95
2023-05-24T05:44:06.955Z,12.15
2023-05-24T05:46:34.064Z,8.93
2023-05-24T05:49:01.236Z,8.63
2023-05-24T05:51:28.383Z,8.25
2023-05-24T05:53:55.614Z,6.78
2023-05-24T05:56:22.683Z,8.52
2023-05-24T05:58:49.936Z,8.25
2023-05-24T06:01:17.139Z,7.97
2023-05-24T06:03:45.208Z,9.02
2023-05-24T06:06:12.612Z,12.23
2023-05-24T06:08:41.033Z,10.60
2023-05-24T06:11:08.176Z,10.98
2023-05-24T06:13:35.206Z,8.80
2023-05-24T06:16:02.341Z,12.73
2023-05-24T06:18:30.688Z,14.40
2023-05-24T06:20:57.806Z,9.50
2023-05-24T06:23:24.941Z,11.25
2023-05-24T06:25:52.004Z,10.48
2023-05-24T06:28:19.132Z,10.00
2023-05-24T06:30:47.751Z,10.02
2023-05-24T06:33:14.961Z,11.43
2023-05-24T06:35:42.018Z,10.73
2023-05-24T06:38:09.160Z,10.68
2023-05-24T06:40:36.271Z,7.80
2023-05-24T06:43:04.352Z,9.60
2023-05-24T06:45:32.304Z,14.57
2023-05-24T06:47:59.600Z,9.48
2023-05-24T06:50:26.694Z,8.70
2023-05-24T06:52:53.864Z,10.48
2023-05-24T06:55:21.173Z,12.95
2023-05-24T06:57:48.226Z,10.07
2023-05-24T07:00:15.746Z,6.95
2023-05-24T07:02:43.033Z,7.00
2023-05-24T07:05:12.861Z,11.45
2023-05-24T07:07:43.991Z,7.72
2023-05-24T07:10:11.880Z,10.02
2023-05-24T07:12:39.049Z,9.40
2023-05-24T07:15:07.358Z,8.45
2023-05-24T07:17:34.828Z,9.48
2023-05-24T07:20:02.570Z,8.50
2023-05-24T07:22:32.718Z,8.43
2023-05-24T07:24:59.794Z,9.63
2023-05-24T07:27:26.863Z,9.57
2023-05-24T07:29:54.334Z,9.75
2023-05-24T07:32:21.747Z,14.43
2023-05-24T07:34:48.932Z,14.23
2023-05-24T07:37:16.832Z,9.30
2023-05-24T07:39:43.943Z,10.95
2023-05-24T07:42:11.029Z,10.18
2023-05-24T07:44:38.080Z,8.18
2023-05-24T07:47:05.314Z,9.48
2023-05-24T07:49:32.669Z,7.82
2023-05-24T07:52:00.374Z,13.75
2023-05-24T07:54:27.426Z,10.13
2023-05-24T07:56:54.518Z,9.40
2023-05-24T07:59:23.048Z,10.57
2023-05-24T08:01:50.708Z,7.65
2023-05-24T08:04:18.154Z,9.23
2023-05-24T08:06:46.893Z,14.25
2023-05-24T08:09:14.162Z,10.90
2023-05-24T08:11:41.958Z,12.00
2023-05-24T08:14:09.092Z,8.63
2023-05-24T08:16:36.255Z,10.13
2023-05-24T08:19:03.405Z,8.95
2023-05-24T08:21:30.687Z,11.57
2023-05-24T08:23:57.861Z,12.90
2023-05-24T08:26:24.944Z,10.15
2023-05-24T08:28:52.496Z,7.55
2023-05-24T08:31:19.564Z,7.65
2023-05-24T08:33:50.593Z,8.48
2023-05-24T08:36:18.518Z,11.38
2023-05-24T08:38:45.585Z,13.65
2023-05-24T08:41:12.657Z,9.45
2023-05-24T08:43:39.800Z,13.02
2023-05-24T08:46:08.001Z,10.02
2023-05-24T08:48:45.330Z,8.50
2023-05-24T08:51:16.950Z,10.82
2023-05-24T08:53:48.968Z,11.10
2023-05-24T08:56:18.062Z,8.63
2023-05-24T08:58:47.308Z,10.23
2023-05-24T09:01:17.016Z,9.50
2023-05-24T09:03:46.757Z,8.00
2023-05-24T09:06:16.968Z,10.98
2023-05-24T09:08:45.398Z,9.82
2023-05-24T09:11:14.797Z,9.13
2023-05-24T09:13:44.807Z,9.98
2023-05-24T09:16:12.526Z,12.73
2023-05-24T09:18:42.816Z,11.18
2023-05-24T09:21:12.027Z,9.63
2023-05-24T09:23:40.948Z,7.88
2023-05-24T09:26:09.835Z,9.73
2023-05-24T09:28:38.072Z,8.52
2023-05-24T09:31:07.920Z,10.35
2023-05-24T09:33:35.948Z,7.07
2023-05-24T09:36:07.322Z,11.27
2023-05-24T09:38:36.455Z,10.63
2023-05-24T09:41:08.864Z,10.88
2023-05-24T09:43:48.258Z,8.15
2023-05-24T09:46:22.346Z,10.07
2023-05-24T09:49:04.127Z,9.23
2023-05-24T09:51:31.207Z,8.52
2023-05-24T09:54:01.855Z,7.88
2023-05-24T09:56:30.272Z,7.88
2023-05-24T09:58:58.181Z,7.43
2023-05-24T10:01:26.986Z,9.45
2023-05-24T10:03:59.419Z,7.55
2023-05-24T10:06:26.869Z,7.85
2023-05-24T10:08:57.190Z,7.72
2023-05-24T10:11:24.494Z,8.02
2023-05-24T10:13:51.833Z,8.38
2023-05-24T10:16:18.980Z,6.32
2023-05-24T10:18:46.508Z,9.43
2023-05-24T10:21:14.133Z,7.60
2023-05-24T10:23:44.679Z,7.28
2023-05-24T10:26:12.805Z,7.32
2023-05-24T10:28:49.009Z,7.38
2023-05-24T10:31:22.942Z,6.75
2023-05-24T10:33:52.230Z,9.63
2023-05-24T10:36:20.052Z,8.27
2023-05-24T10:38:47.528Z,9.80
2023-05-24T10:41:14.614Z,6.93
2023-05-24T10:43:56.782Z,7.38
2023-05-24T10:46:33.498Z,6.72
2023-05-24T10:49:01.517Z,6.75
2023-05-24T10:51:39.594Z,6.10
2023-05-24T10:54:13.979Z,9.40
2023-05-24T10:56:43.290Z,9.43
2023-05-24T10:59:23.235Z,9.40
2023-05-24T11:02:01.073Z,7.20
2023-05-24T11:04:33.214Z,6.90
2023-05-24T11:07:11.684Z,6.32
2023-05-24T11:09:46.818Z,6.10
2023-05-24T11:12:19.110Z,5.18
2023-05-24T11:14:52.432Z,8.98
2023-05-24T11:17:22.878Z,6.38
2023-05-24T11:19:55.161Z,10.52
2023-05-24T11:22:25.673Z,8.85
2023-05-24T11:24:53.521Z,7.18
2023-05-24T11:27:21.108Z,6.80
2023-05-24T11:29:49.016Z,8.63
2023-05-24T11:32:19.032Z,7.60
2023-05-24T11:34:49.990Z,6.28
2023-05-24T11:37:18.838Z,8.73
2023-05-24T11:39:52.847Z,6.78
2023-05-24T11:42:22.328Z,9.30
2023-05-24T11:44:50.232Z,8.00
2023-05-24T11:47:20.506Z,8.98
2023-05-24T11:49:50.741Z,11.57
2023-05-24T11:52:17.782Z,7.53
2023-05-24T11:54:45.058Z,8.90
2023-05-24T11:57:12.956Z,12.85
2023-05-24T11:59:41.992Z,9.52
2023-05-24T12:02:09.287Z,7.20
2023-05-24T12:04:36.552Z,12.40
2023-05-24T12:07:03.869Z,8.73
2023-05-24T12:09:31.087Z,12.55
2023-05-24T12:11:58.817Z,10.13
2023-05-24T12:14:31.414Z,8.02
2023-05-24T12:16:59.839Z,8.45
2023-05-24T12:19:34.685Z,7.97
2023-05-24T12:22:07.510Z,12.55
2023-05-24T12:24:35.888Z,9.75
2023-05-24T12:27:08.894Z,8.57
2023-05-24T12:29:38.936Z,9.68
2023-05-24T12:32:12.477Z,9.27
2023-05-24T12:34:44.521Z,11.13
2023-05-24T12:37:13.655Z,9.55
2023-05-24T12:39:43.795Z,12.32
2023-05-24T12:42:16.227Z,9.20
2023-05-24T12:44:45.147Z,10.10
2023-05-24T12:47:12.760Z,10.32
2023-05-24T12:49:39.822Z,12.32
2023-05-24T12:52:07.149Z,10.05
2023-05-24T12:54:34.318Z,9.35
2023-05-24T12:57:03.383Z,10.90
2023-05-24T12:59:31.201Z,12.40
2023-05-24T13:01:58.340Z,7.90
2023-05-24T13:04:30.708Z,9.52
2023-05-24T13:06:57.998Z,9.00
2023-05-24T13:09:26.023Z,9.75
2023-05-24T13:11:54.350Z,10.68
2023-05-24T13:14:22.131Z,10.45
2023-05-24T13:16:49.779Z,9.13
2023-05-24T13:19:17.523Z,8.90
2023-05-24T13:21:45.675Z,7.13
2023-05-24T13:24:16.200Z,10.05
2023-05-24T13:26:45.176Z,6.97
2023-05-24T13:29:30.544Z,8.77
2023-05-24T13:32:00.065Z,9.43
2023-05-24T13:34:27.417Z,11.27
2023-05-24T13:36:55.064Z,8.43
2023-05-24T13:39:22.672Z,8.52
2023-05-24T13:41:50.249Z,9.68
2023-05-24T13:44:17.473Z,10.77
2023-05-24T13:46:45.033Z,7.47
2023-05-24T13:49:13.008Z,9.35
2023-05-24T13:51:40.550Z,10.10
2023-05-24T13:54:08.440Z,10.73
2023-05-24T13:56:36.789Z,9.95
2023-05-24T13:59:04.908Z,11.45
2023-05-24T14:01:33.715Z,9.75
2023-05-24T14:04:02.532Z,11.77
2023-05-24T14:06:29.954Z,9.55
2023-05-24T14:08:57.310Z,8.98
2023-05-24T14:11:25.625Z,11.23
2023-05-24T14:16:24.417Z,10.13
2023-05-24T14:18:51.915Z,9.15
2023-05-24T14:21:19.808Z,8.07
2023-05-24T14:23:46.965Z,9.55
2023-05-24T14:26:14.486Z,9.43
2023-05-24T14:28:41.596Z,8.95
2023-05-24T14:31:08.827Z,11.40
2023-05-24T14:33:36.085Z,8.93
2023-05-24T14:36:03.230Z,9.73
2023-05-24T14:38:30.497Z,9.38
2023-05-24T14:40:58.843Z,8.43
2023-05-24T14:43:26.359Z,9.80
2023-05-24T14:45:53.830Z,8.43
2023-05-24T14:48:20.990Z,7.85
2023-05-24T14:50:48.100Z,11.45
2023-05-24T14:53:15.183Z,11.02
2023-05-24T14:55:43.896Z,8.93
2023-05-24T14:58:12.331Z,7.47
2023-05-24T15:00:41.128Z,10.95
2023-05-24T15:03:09.112Z,14.38
2023-05-24T15:05:36.808Z,7.55
2023-05-24T15:08:05.703Z,6.40
2023-05-24T15:10:33.465Z,11.90
2023-05-24T15:13:01.653Z,5.63
2023-05-24T15:15:29.312Z,5.50
2023-05-24T15:17:59.659Z,5.85
2023-05-24T15:20:27.200Z,5.93
2023-05-24T15:22:54.281Z,7.70
2023-05-24T15:25:21.580Z,5.93
2023-05-24T15:27:49.280Z,4.95
2023-05-24T15:30:17.628Z,8.45
2023-05-24T15:32:46.588Z,6.22
2023-05-24T15:35:14.397Z,8.02
2023-05-24T15:37:42.960Z,6.18
2023-05-24T15:40:11.206Z,7.70
2023-05-24T15:42:38.296Z,7.50
2023-05-24T15:45:05.850Z,7.05
2023-05-24T15:47:38.180Z,8.27
2023-05-24T15:50:07.874Z,7.53
2023-05-24T15:52:35.661Z,8.63
2023-05-24T15:55:02.767Z,8.93
2023-05-24T15:57:31.541Z,7.07
2023-05-24T15:59:58.712Z,7.72
2023-05-24T16:02:25.995Z,7.55
2023-05-24T16:04:53.325Z,9.32
2023-05-24T16:07:20.519Z,6.50
2023-05-24T16:09:50.231Z,6.32
2023-05-24T16:12:17.969Z,7.65
2023-05-24T16:14:45.275Z,6.22
2023-05-24T16:17:13.543Z,10.73
2023-05-24T16:19:41.367Z,7.10
2023-05-24T16:22:08.707Z,6.97
2023-05-24T16:24:35.758Z,7.63
2023-05-24T16:27:02.908Z,8.75
2023-05-24T16:29:30.414Z,9.95
2023-05-24T16:31:57.713Z,10.18
2023-05-24T16:34:25.214Z,8.45
2023-05-24T16:36:52.434Z,9.65
2023-05-24T16:39:19.543Z,9.07
2023-05-24T16:41:47.132Z,9.48
2023-05-24T16:44:18.013Z,11.05
2023-05-24T16:46:46.256Z,9.18
2023-05-24T16:49:13.706Z,9.77
2023-05-24T16:51:40.941Z,7.10
2023-05-24T16:54:09.216Z,8.30
2023-05-24T16:56:37.984Z,8.23
2023-05-24T16:59:05.820Z,10.55
2023-05-24T17:01:33.220Z,7.45
2023-05-24T17:04:00.729Z,8.73
2023-05-24T17:06:28.043Z,8.45
2023-05-24T17:08:55.157Z,9.52
2023-05-24T17:11:23.278Z,9.52
2023-05-24T17:13:51.627Z,9.13
2023-05-24T17:16:19.002Z,12.80
2023-05-24T17:18:46.409Z,12.05
2023-05-24T17:21:13.885Z,9.82
2023-05-24T17:23:40.936Z,9.02
2023-05-24T17:26:08.302Z,7.68
2023-05-24T17:28:36.528Z,8.85
2023-05-24T17:31:04.237Z,9.88
2023-05-24T17:33:32.404Z,9.77
2023-05-24T17:36:04.426Z,8.05
2023-05-24T17:38:37.623Z,12.15
2023-05-24T17:41:07.855Z,10.15
2023-05-24T17:43:36.867Z,11.98
2023-05-24T17:46:06.723Z,12.10
2023-05-24T17:48:36.898Z,11.13
2023-05-24T17:51:08.662Z,12.00
2023-05-24T17:53:38.189Z,10.32
2023-05-24T17:56:06.628Z,12.68
2023-05-24T17:58:36.895Z,9.32
2023-05-24T18:01:07.248Z,9.98
2023-05-24T18:03:37.309Z,9.55
2023-05-24T18:06:07.013Z,8.68
2023-05-24T18:08:37.320Z,10.48
2023-05-24T18:11:08.653Z,9.60
2023-05-24T18:13:37.739Z,12.68
2023-05-24T18:16:06.055Z,27.92
2023-05-24T18:18:33.261Z,12.95
2023-05-24T18:21:00.422Z,15.70
2023-05-24T18:23:27.559Z,9.80
2023-05-24T18:26:00.600Z,9.70
2023-05-24T18:28:30.435Z,12.52
2023-05-24T18:30:57.550Z,10.77
2023-05-24T18:33:24.790Z,11.63
2023-05-24T18:35:52.040Z,13.00
2023-05-24T18:38:19.100Z,13.18
2023-05-24T18:40:46.259Z,12.45
2023-05-24T18:43:13.357Z,12.30
2023-05-24T18:45:40.600Z,12.40
2023-05-24T18:48:08.183Z,15.38
2023-05-24T18:50:35.335Z,14.30
2023-05-24T18:53:02.422Z,16.90
2023-05-24T18:55:29.523Z,15.48
2023-05-24T18:57:56.688Z,15.68
2023-05-24T19:00:24.631Z,16.33
2023-05-24T19:02:52.174Z,15.25
2023-05-24T19:05:20.114Z,19.05
2023-05-24T19:07:47.292Z,17.10
2023-05-24T19:10:14.433Z,21.63
2023-05-24T19:12:41.599Z,20.15
2023-05-24T19:15:09.211Z,20.65
2023-05-24T19:17:36.344Z,19.67
2023-05-24T19:20:04.126Z,22.52
2023-05-24T19:22:33.991Z,23.05
2023-05-24T19:25:01.575Z,24.15
2023-05-24T19:27:31.709Z,20.85
2023-05-24T19:30:00.261Z,17.52
2023-05-24T19:32:28.028Z,19.55
2023-05-24T19:34:55.306Z,22.95
2023-05-24T19:37:22.704Z,18.75
2023-05-24T19:39:51.498Z,20.30
2023-05-24T19:42:18.823Z,21.73
2023-05-24T19:44:45.997Z,20.35
2023-05-24T19:47:13.216Z,23.67
2023-05-24T19:49:40.369Z,23.98
2023-05-24T19:52:07.574Z,21.73
2023-05-24T19:54:34.716Z,19.90
2023-05-24T19:57:02.610Z,20.77
2023-05-24T19:59:29.860Z,18.63
2023-05-24T20:01:56.958Z,20.77
2023-05-24T20:04:24.214Z,17.10
2023-05-24T20:06:53.468Z,17.20
2023-05-24T20:09:20.698Z,24.00
2023-05-24T20:11:47.861Z,22.52
2023-05-24T20:14:15.095Z,19.40
2023-05-24T20:16:42.266Z,19.27
2023-05-24T20:19:10.650Z,22.92
2023-05-24T20:21:37.955Z,19.85
2023-05-24T20:24:05.540Z,17.90
2023-05-24T20:26:33.550Z,20.92
2023-05-24T20:29:01.111Z,21.52
2023-05-24T20:31:28.300Z,20.83
2023-05-24T20:33:55.443Z,20.50
2023-05-24T20:36:22.524Z,23.05
2023-05-24T20:38:50.362Z,25.80
2023-05-24T20:41:18.127Z,25.63
2023-05-24T20:43:45.252Z,27.00
2023-05-24T20:46:14.075Z,25.50
2023-05-24T20:48:42.254Z,25.33
2023-05-24T20:51:09.974Z,23.10
2023-05-24T20:53:37.804Z,21.20
2023-05-24T20:56:04.954Z,24.05
2023-05-24T20:58:32.114Z,26.35
2023-05-24T21:00:59.336Z,23.33
2023-05-24T21:03:26.536Z,22.45
2023-05-24T21:05:53.693Z,21.00
2023-05-24T21:08:20.935Z,23.85
2023-05-24T21:10:48.042Z,25.92
2023-05-24T21:13:15.287Z,26.05
2023-05-24T21:15:44.712Z,21.67
2023-05-24T21:18:13.078Z,22.60
2023-05-24T21:20:40.639Z,27.38
2023-05-24T21:23:07.881Z,25.08
2023-05-24T21:25:35.098Z,24.98
2023-05-24T21:28:02.257Z,22.17
2023-05-24T21:30:30.655Z,27.35
2023-05-24T21:32:57.935Z,23.02
2023-05-24T21:35:25.159Z,21.55
2023-05-24T21:37:52.770Z,25.50
2023-05-24T21:40:19.897Z,20.40
2023-05-24T21:42:47.470Z,21.75
2023-05-24T21:45:14.641Z,26.88
2023-05-24T21:47:42.870Z,22.27
2023-05-24T21:50:10.371Z,25.02
2023-05-24T21:52:37.585Z,23.02
2023-05-24T21:55:05.589Z,19.67
2023-05-24T21:57:32.870Z,26.52
2023-05-24T22:00:00.129Z,22.55
2023-05-24T22:02:27.499Z,29.45
2023-05-24T22:04:54.893Z,23.48
2023-05-24T22:07:22.077Z,27.50
2023-05-24T22:09:49.215Z,24.38
2023-05-24T22:12:16.514Z,27.48
2023-05-24T22:14:43.627Z,27.58
2023-05-24T22:17:11.446Z,25.13
2023-05-24T22:19:41.420Z,21.67
2023-05-24T22:22:10.005Z,22.60
2023-05-24T22:24:37.163Z,21.15
2023-05-24T22:27:04.898Z,22.38
2023-05-24T22:29:31.971Z,23.23
2023-05-24T22:31:59.084Z,19.77
2023-05-24T22:34:29.264Z,24.98
2023-05-24T22:36:57.734Z,20.90
2023-05-24T22:39:25.296Z,24.25
2023-05-24T22:41:52.974Z,24.92
2023-05-24T22:44:20.337Z,22.45
2023-05-24T22:46:49.925Z,19.27
2023-05-24T22:49:20.097Z,23.10
2023-05-24T22:51:48.848Z,21.08
2023-05-24T22:54:16.404Z,17.30
2023-05-24T22:56:44.159Z,20.55
2023-05-24T22:59:11.596Z,22.23
2023-05-24T23:01:39.068Z,17.17
2023-05-24T23:04:19.831Z,20.27
2023-05-24T23:06:53.233Z,27.02
2023-05-24T23:09:41.700Z,22.75
2023-05-24T23:12:09.337Z,21.23
2023-05-24T23:14:41.909Z,21.40
2023-05-24T23:17:15.810Z,18.65
2023-05-24T23:19:43.445Z,23.73
2023-05-24T23:22:23.802Z,15.90
2023-05-24T23:24:51.299Z,16.15
2023-05-24T23:27:18.630Z,15.80
2023-05-24T23:29:45.752Z,18.58
2023-05-24T23:32:12.979Z,16.23
2023-05-24T23:34:40.040Z,14.00
2023-05-24T23:37:07.725Z,17.83
2023-05-24T23:39:34.911Z,14.63
2023-05-24T23:42:02.680Z,13.00
2023-05-24T23:44:29.891Z,15.63
2023-05-24T23:46:57.405Z,12.98
2023-05-24T23:49:25.886Z,16.23
2023-05-24T23:51:53.000Z,14.65
2023-05-24T23:54:20.335Z,14.13
2023-05-24T23:56:47.607Z,14.70
2023-05-24T23:59:17.045Z,14.93
